createdAt,value
2022-11-05T00:00:03.814Z,98001.63
2022-11-05T00:02:49.118Z,98006.25
2022-11-05T00:05:34.578Z,98012.47
2022-11-05T00:11:16.878Z,98010.31
2022-11-05T00:14:03.279Z,98015.19
2022-11-05T00:16:45.205Z,98010.53
2022-11-05T00:22:03.300Z,98015.84
2022-11-05T00:24:48.239Z,98021.34
2022-11-05T00:27:14.888Z,98022.16
2022-11-05T00:29:41.492Z,98025.69
2022-11-05T00:32:08.087Z,98024.13
2022-11-05T00:34:34.693Z,98033.78
2022-11-05T00:37:01.282Z,98030.69
2022-11-05T00:39:27.921Z,98036.19
2022-11-05T00:42:13.096Z,98034.63
2022-11-05T00:44:58.618Z,98034.94
2022-11-05T00:47:43.998Z,98031.88
2022-11-05T00:50:11.077Z,98040.88
2022-11-05T00:52:56.508Z,98044.78
2022-11-05T00:55:35.257Z,98048.25
2022-11-05T00:58:03.630Z,98046.13
2022-11-05T01:00:31.829Z,98054.66
2022-11-05T01:03:00.863Z,98056.31
2022-11-05T01:05:28.721Z,98061.47
2022-11-05T01:07:55.346Z,98067.38
2022-11-05T01:10:22.779Z,98065.00
2022-11-05T01:12:49.446Z,98067.25
2022-11-05T01:15:17.691Z,98070.06
2022-11-05T01:17:44.251Z,98068.88
2022-11-05T01:20:11.709Z,98069.72
2022-11-05T01:22:38.290Z,98071.19
2022-11-05T01:25:05.440Z,98070.38
2022-11-05T01:27:31.981Z,98071.06
2022-11-05T01:29:58.636Z,98080.22
2022-11-05T01:32:25.206Z,98073.53
2022-11-05T01:34:51.772Z,98084.44
2022-11-05T01:37:18.716Z,98090.97
2022-11-05T01:39:45.441Z,98092.91
2022-11-05T01:42:19.650Z,98088.97
2022-11-05T01:44:58.747Z,98085.72
2022-11-05T01:47:41.527Z,98088.44
2022-11-05T01:50:41.445Z,98088.09
2022-11-05T01:53:13.929Z,98093.56
2022-11-05T01:55:46.177Z,98087.34
2022-11-05T01:58:18.496Z,98089.50
2022-11-05T02:00:45.370Z,98092.63
2022-11-05T02:03:14.540Z,98098.03
2022-11-05T02:05:42.139Z,98098.84
2022-11-05T02:08:16.751Z,98098.75
2022-11-05T02:10:45.729Z,98098.75
2022-11-05T02:13:12.736Z,98100.56
2022-11-05T02:15:45.211Z,98106.50
2022-11-05T02:18:23.028Z,98107.56
2022-11-05T02:21:09.558Z,98099.00
2022-11-05T02:23:56.315Z,98098.75
2022-11-05T02:26:34.562Z,98097.56
2022-11-05T02:29:19.250Z,98104.69
2022-11-05T02:31:52.806Z,98103.47
2022-11-05T02:34:22.040Z,98111.63
2022-11-05T02:37:09.286Z,98109.59
2022-11-05T02:39:48.721Z,98113.94
2022-11-05T02:42:33.908Z,98110.38
2022-11-05T02:45:20.315Z,98113.53
2022-11-05T02:47:59.153Z,98121.22
2022-11-05T02:50:45.654Z,98118.81
2022-11-05T02:53:33.897Z,98120.94
2022-11-05T02:56:09.165Z,98120.19
2022-11-05T02:58:36.042Z,98113.91
2022-11-05T03:01:07.073Z,98116.97
2022-11-05T03:03:49.515Z,98113.16
2022-11-05T03:10:07.278Z,98114.72
2022-11-05T03:15:21.883Z,98126.13
2022-11-05T03:18:09.941Z,98125.00
2022-11-05T03:20:56.923Z,98127.25
2022-11-05T03:23:47.771Z,98132.63
2022-11-05T03:26:17.667Z,98130.59
2022-11-05T03:28:49.771Z,98132.94
2022-11-05T03:31:17.923Z,98135.03
2022-11-05T03:33:46.761Z,98136.63
2022-11-05T03:36:23.565Z,98138.28
2022-11-05T03:38:53.338Z,98135.56
2022-11-05T03:41:22.205Z,98148.00
2022-11-05T03:43:52.414Z,98155.41
2022-11-05T03:46:26.574Z,98151.53
2022-11-05T03:48:57.294Z,98153.00
2022-11-05T03:51:36.114Z,98152.25
2022-11-05T03:54:04.515Z,98151.94
2022-11-05T03:56:37.761Z,98169.13
2022-11-05T03:59:06.467Z,98164.34
2022-11-05T04:01:33.502Z,98174.13
2022-11-05T04:04:00.228Z,98170.97
2022-11-05T04:06:45.450Z,98173.66
2022-11-05T04:09:30.773Z,98178.59
2022-11-05T04:12:16.196Z,98176.81
2022-11-05T04:14:42.791Z,98189.22
2022-11-05T04:17:10.050Z,98180.75
2022-11-05T04:19:57.087Z,98190.75
2022-11-05T04:22:44.465Z,98188.00
2022-11-05T04:25:12.132Z,98189.16
2022-11-05T04:27:39.064Z,98192.66
2022-11-05T04:30:18.897Z,98192.59
2022-11-05T04:33:09.073Z,98206.31
2022-11-05T04:35:37.375Z,98205.88
2022-11-05T04:38:11.866Z,98206.22
2022-11-05T04:40:39.045Z,98207.41
2022-11-05T04:43:09.329Z,98209.28
2022-11-05T04:45:41.344Z,98209.34
2022-11-05T04:48:08.389Z,98208.97
2022-11-05T04:50:35.025Z,98210.06
2022-11-05T04:53:01.615Z,98211.97
2022-11-05T04:55:28.682Z,98214.22
2022-11-05T04:57:55.329Z,98221.50
2022-11-05T05:00:23.748Z,98216.50
2022-11-05T05:02:50.466Z,98220.34
2022-11-05T05:05:17.215Z,98220.13
2022-11-05T05:07:43.792Z,98223.50
2022-11-05T05:10:11.399Z,98225.91
2022-11-05T05:12:37.983Z,98222.91
2022-11-05T05:15:05.316Z,98223.97
2022-11-05T05:20:21.724Z,98236.69
2022-11-05T05:22:53.254Z,98241.41
2022-11-05T05:25:19.862Z,98245.00
2022-11-05T05:27:46.548Z,98249.19
2022-11-05T05:30:13.273Z,98256.28
2022-11-05T05:32:39.851Z,98255.56
2022-11-05T05:35:06.677Z,98260.22
2022-11-05T05:37:33.279Z,98254.81
2022-11-05T05:39:59.867Z,98254.75
2022-11-05T05:42:26.515Z,98259.06
2022-11-05T05:44:53.095Z,98264.59
2022-11-05T05:47:19.751Z,98266.53
2022-11-05T05:49:46.379Z,98269.56
2022-11-05T05:52:12.947Z,98264.63
2022-11-05T05:54:42.768Z,98273.16
2022-11-05T05:57:09.722Z,98279.44
2022-11-05T05:59:36.342Z,98276.69
2022-11-05T06:02:03.415Z,98279.44
2022-11-05T06:04:30.087Z,98272.72
2022-11-05T06:06:56.717Z,98283.63
2022-11-05T06:09:23.256Z,98285.19
2022-11-05T06:11:49.810Z,98294.53
2022-11-05T06:14:16.422Z,98290.16
2022-11-05T06:16:43.014Z,98292.16
2022-11-05T06:19:09.688Z,98295.31
2022-11-05T06:21:36.424Z,98304.59
2022-11-05T06:24:03.638Z,98301.38
2022-11-05T06:26:30.653Z,98302.56
2022-11-05T06:28:57.354Z,98311.09
2022-11-05T06:31:24.476Z,98319.28
2022-11-05T06:33:51.227Z,98329.94
2022-11-05T06:36:19.657Z,98336.41
2022-11-05T06:38:46.580Z,98324.72
2022-11-05T06:41:13.310Z,98336.50
2022-11-05T06:43:40.186Z,98330.91
2022-11-05T06:46:07.651Z,98340.34
2022-11-05T06:48:34.703Z,98338.75
2022-11-05T06:51:01.595Z,98339.53
2022-11-05T06:53:28.262Z,98345.72
2022-11-05T06:55:55.042Z,98353.09
2022-11-05T06:58:21.660Z,98364.66
2022-11-05T07:00:48.972Z,98364.22
2022-11-05T07:03:15.822Z,98366.94
2022-11-05T07:05:48.034Z,98368.91
2022-11-05T07:08:15.418Z,98367.38
2022-11-05T07:10:42.009Z,98377.94
2022-11-05T07:13:09.084Z,98388.78
2022-11-05T07:15:36.799Z,98388.34
2022-11-05T07:18:05.317Z,98397.34
2022-11-05T07:20:34.354Z,98403.34
2022-11-05T07:23:06.689Z,98407.56
2022-11-05T07:25:34.636Z,98408.00
2022-11-05T07:28:02.139Z,98420.50
2022-11-05T07:30:29.753Z,98419.19
2022-11-05T07:32:56.488Z,98422.41
2022-11-05T07:35:23.624Z,98426.28
2022-11-05T07:40:28.008Z,98427.66
2022-11-05T07:42:57.660Z,98426.78
2022-11-05T07:45:25.530Z,98432.38
2022-11-05T07:47:54.421Z,98437.63
2022-11-05T07:50:23.248Z,98444.59
2022-11-05T07:55:23.206Z,98445.75
2022-11-05T07:57:51.035Z,98449.38
2022-11-05T08:00:23.133Z,98447.94
2022-11-05T08:03:05.583Z,98450.09
2022-11-05T08:05:39.068Z,98452.09
2022-11-05T08:08:08.068Z,98454.34
2022-11-05T08:10:35.428Z,98455.63
2022-11-05T08:13:02.554Z,98455.84
2022-11-05T08:15:29.348Z,98457.22
2022-11-05T08:18:07.786Z,98461.03
2022-11-05T08:20:35.372Z,98457.97
2022-11-05T08:23:02.018Z,98464.84
2022-11-05T08:25:29.074Z,98467.66
2022-11-05T08:27:57.719Z,98471.22
2022-11-05T08:30:24.581Z,98475.69
2022-11-05T08:32:51.733Z,98483.66
2022-11-05T08:35:18.456Z,98476.25
2022-11-05T08:37:44.968Z,98485.38
2022-11-05T08:40:12.027Z,98489.56
2022-11-05T08:42:38.625Z,98494.41
2022-11-05T08:45:05.612Z,98488.91
2022-11-05T08:47:32.192Z,98492.28
2022-11-05T08:49:58.776Z,98490.84
2022-11-05T08:52:25.402Z,98496.56
2022-11-05T08:54:52.048Z,98495.41
2022-11-05T08:57:18.821Z,98501.88
2022-11-05T08:59:45.456Z,98509.03
2022-11-05T09:02:12.235Z,98513.88
2022-11-05T09:04:38.950Z,98513.66
2022-11-05T09:07:05.543Z,98511.22
2022-11-05T09:09:33.047Z,98511.03
2022-11-05T09:12:12.131Z,98518.44
2022-11-05T09:14:39.207Z,98518.78
2022-11-05T09:17:15.769Z,98523.69
2022-11-05T09:19:42.373Z,98529.91
2022-11-05T09:22:09.016Z,98536.50
2022-11-05T09:24:35.571Z,98531.28
2022-11-05T09:27:02.099Z,98537.53
2022-11-05T09:29:28.673Z,98535.97
2022-11-05T09:31:55.255Z,98540.03
2022-11-05T09:34:21.872Z,98535.59
2022-11-05T09:36:48.450Z,98539.81
2022-11-05T09:39:15.079Z,98539.63
2022-11-05T09:41:43.676Z,98547.66
2022-11-05T09:44:16.028Z,98544.47
2022-11-05T09:46:47.655Z,98550.34
2022-11-05T09:49:23.202Z,98541.06
2022-11-05T09:51:49.822Z,98545.63
2022-11-05T09:54:26.543Z,98543.97
2022-11-05T09:56:54.622Z,98547.56
2022-11-05T09:59:42.450Z,98548.13
2022-11-05T10:02:15.090Z,98552.84
2022-11-05T10:04:45.146Z,98556.47
2022-11-05T10:07:20.279Z,98557.88
2022-11-05T10:09:51.657Z,98567.47
2022-11-05T10:12:28.868Z,98572.06
2022-11-05T10:15:16.850Z,98580.34
2022-11-05T10:20:34.895Z,98578.63
2022-11-05T10:23:10.862Z,98587.00
2022-11-05T10:25:41.192Z,98590.16
2022-11-05T10:28:10.881Z,98600.66
2022-11-05T10:30:37.557Z,98588.84
2022-11-05T10:33:06.825Z,98599.94
2022-11-05T10:35:41.792Z,98609.25
2022-11-05T10:38:14.757Z,98602.22
2022-11-05T10:41:05.452Z,98606.63
2022-11-05T10:43:41.025Z,98605.38
2022-11-05T10:46:28.116Z,98604.50
2022-11-05T10:49:03.742Z,98605.16
2022-11-05T10:54:15.986Z,98603.06
2022-11-05T10:56:42.764Z,98606.31
2022-11-05T10:59:27.135Z,98607.16
2022-11-05T11:02:03.671Z,98608.03
2022-11-05T11:04:36.559Z,98608.34
2022-11-05T11:07:05.073Z,98609.44
2022-11-05T11:09:36.318Z,98613.03
2022-11-05T11:12:22.575Z,98614.97
2022-11-05T11:15:29.228Z,98617.34
2022-11-05T11:17:56.692Z,98610.59
2022-11-05T11:20:29.258Z,98612.06
2022-11-05T11:23:01.454Z,98617.50
2022-11-05T11:25:53.293Z,98612.63
2022-11-05T11:28:33.017Z,98613.63
2022-11-05T11:31:13.740Z,98620.25
2022-11-05T11:33:44.755Z,98626.03
2022-11-05T11:36:12.861Z,98623.94
2022-11-05T11:38:40.503Z,98626.97
2022-11-05T11:41:29.837Z,98627.41
2022-11-05T11:44:01.732Z,98617.84
2022-11-05T11:46:32.505Z,98622.56
2022-11-05T11:49:00.058Z,98622.09
2022-11-05T11:51:40.884Z,98629.16
2022-11-05T11:54:20.178Z,98626.16
2022-11-05T11:56:48.520Z,98631.47
2022-11-05T12:00:06.419Z,98630.56
2022-11-05T12:02:41.827Z,98628.38
2022-11-05T12:05:24.248Z,98630.03
2022-11-05T12:07:54.712Z,98628.19
2022-11-05T12:10:36.555Z,98626.78
2022-11-05T12:13:21.149Z,98620.88
2022-11-05T12:15:57.935Z,98621.06
2022-11-05T12:18:49.316Z,98615.84
2022-11-05T12:21:47.667Z,98607.66
2022-11-05T12:24:29.833Z,98613.16
2022-11-05T12:27:02.939Z,98613.00
2022-11-05T12:30:01.746Z,98613.41
2022-11-05T12:33:07.059Z,98612.00
2022-11-05T12:35:57.811Z,98608.03
2022-11-05T12:38:30.455Z,98614.19
2022-11-05T12:41:18.552Z,98611.91
2022-11-05T12:47:27.710Z,98616.56
2022-11-05T12:50:22.968Z,98613.50
2022-11-05T12:53:10.949Z,98622.00
2022-11-05T12:55:45.478Z,98620.38
2022-11-05T12:58:31.414Z,98620.53
2022-11-05T13:01:03.335Z,98624.09
2022-11-05T13:03:50.859Z,98621.81
2022-11-05T13:06:22.154Z,98619.81
2022-11-05T13:08:57.910Z,98627.91
2022-11-05T13:11:39.964Z,98618.63
2022-11-05T13:14:14.806Z,98620.91
2022-11-05T13:16:49.513Z,98619.09
2022-11-05T13:19:16.124Z,98617.09
2022-11-05T13:21:45.867Z,98624.88
2022-11-05T13:24:28.781Z,98624.91
2022-11-05T13:27:03.593Z,98626.63
2022-11-05T13:29:45.563Z,98633.16
2022-11-05T13:32:35.821Z,98624.69
2022-11-05T13:35:05.921Z,98626.69
2022-11-05T13:37:56.298Z,98627.41
2022-11-05T13:40:35.260Z,98621.06
2022-11-05T13:43:22.592Z,98624.47
2022-11-05T13:46:04.566Z,98626.78
2022-11-05T13:48:48.256Z,98631.75
2022-11-05T13:51:17.487Z,98632.03
2022-11-05T13:54:34.413Z,98637.44
2022-11-05T13:57:14.989Z,98632.78
2022-11-05T13:59:54.814Z,98636.53
2022-11-05T14:02:29.525Z,98635.50
2022-11-05T14:05:01.715Z,98633.94
2022-11-05T14:07:34.699Z,98632.34
2022-11-05T14:10:21.633Z,98631.84
2022-11-05T14:12:51.473Z,98642.75
2022-11-05T14:15:23.024Z,98636.22
2022-11-05T14:18:01.354Z,98633.44
2022-11-05T14:20:30.569Z,98642.25
2022-11-05T14:23:25.364Z,98640.00
2022-11-05T14:26:17.199Z,98641.53
2022-11-05T14:28:48.601Z,98641.41
2022-11-05T14:31:18.113Z,98644.84
2022-11-05T14:36:44.702Z,98649.81
2022-11-05T14:39:22.250Z,98653.47
2022-11-05T14:42:14.711Z,98649.47
2022-11-05T14:45:01.046Z,98654.91
2022-11-05T14:47:38.896Z,98655.56
2022-11-05T14:50:18.196Z,98662.53
2022-11-05T14:53:30.518Z,98662.53
2022-11-05T14:56:19.097Z,98663.53
2022-11-05T14:58:46.839Z,98666.63
2022-11-05T15:01:13.427Z,98669.34
2022-11-05T15:03:46.002Z,98671.09
2022-11-05T15:09:07.360Z,98675.75
2022-11-05T15:11:39.205Z,98676.31
2022-11-05T15:14:18.106Z,98671.09
2022-11-05T15:16:50.272Z,98672.53
2022-11-05T15:19:29.461Z,98672.38
2022-11-05T15:21:58.976Z,98665.56
2022-11-05T15:24:30.083Z,98674.31
2022-11-05T15:27:09.456Z,98681.56
2022-11-05T15:29:36.154Z,98676.53
2022-11-05T15:32:02.840Z,98679.63
2022-11-05T15:34:32.655Z,98681.50
2022-11-05T15:37:19.703Z,98689.75
2022-11-05T15:39:48.891Z,98683.78
2022-11-05T15:42:17.427Z,98679.75
2022-11-05T15:44:49.193Z,98674.75
2022-11-05T15:47:21.431Z,98685.13
2022-11-05T15:49:50.856Z,98672.97
2022-11-05T15:52:20.746Z,98683.44
2022-11-05T15:55:07.550Z,98681.06
2022-11-05T15:57:39.247Z,98686.53
2022-11-05T16:00:15.285Z,98687.16
2022-11-05T16:02:42.201Z,98687.56
2022-11-05T16:05:13.440Z,98686.44
2022-11-05T16:07:45.357Z,98685.66
2022-11-05T16:10:24.291Z,98685.66
2022-11-05T16:12:51.021Z,98686.34
2022-11-05T16:15:21.793Z,98690.59
2022-11-05T16:17:56.061Z,98695.50
2022-11-05T16:20:32.723Z,98689.97
2022-11-05T16:23:04.324Z,98707.06
2022-11-05T16:25:31.180Z,98703.81
2022-11-05T16:27:59.293Z,98699.31
2022-11-05T16:30:26.478Z,98706.78
2022-11-05T16:32:53.740Z,98712.44
2022-11-05T16:37:55.493Z,98710.31
2022-11-05T16:40:25.902Z,98716.38
2022-11-05T16:42:54.197Z,98713.66
2022-11-05T16:45:24.653Z,98726.00
2022-11-05T16:47:52.055Z,98724.03
2022-11-05T16:50:30.044Z,98731.88
2022-11-05T16:52:56.752Z,98738.50
2022-11-05T16:55:23.505Z,98730.47
2022-11-05T16:57:53.767Z,98730.22
2022-11-05T17:00:22.022Z,98727.03
2022-11-05T17:02:49.082Z,98726.09
2022-11-05T17:05:26.687Z,98731.56
2022-11-05T17:07:53.936Z,98734.56
2022-11-05T17:10:22.859Z,98733.06
2022-11-05T17:12:49.693Z,98734.72
2022-11-05T17:15:23.431Z,98736.22
2022-11-05T17:17:50.873Z,98732.16
2022-11-05T17:20:39.536Z,98733.38
2022-11-05T17:23:12.338Z,98740.16
2022-11-05T17:25:41.092Z,98731.53
2022-11-05T17:28:09.023Z,98739.34
2022-11-05T17:30:37.070Z,98747.31
2022-11-05T17:33:03.925Z,98753.03
2022-11-05T17:35:30.642Z,98756.44
2022-11-05T17:37:57.344Z,98757.25
2022-11-05T17:40:24.924Z,98750.25
2022-11-05T17:42:52.756Z,98752.97
2022-11-05T17:45:19.325Z,98746.28
2022-11-05T17:47:46.173Z,98748.03
2022-11-05T17:50:15.620Z,98754.16
2022-11-05T17:52:42.307Z,98763.81
2022-11-05T17:55:16.814Z,98759.41
2022-11-05T17:57:47.995Z,98770.91
2022-11-05T18:00:20.969Z,98768.44
2022-11-05T18:02:49.717Z,98767.25
2022-11-05T18:05:18.204Z,98774.69
2022-11-05T18:07:45.657Z,98774.22
2022-11-05T18:10:12.990Z,98784.31
2022-11-05T18:12:40.582Z,98784.78
2022-11-05T18:15:08.527Z,98788.75
2022-11-05T18:17:35.271Z,98792.16
2022-11-05T18:20:02.340Z,98791.56
2022-11-05T18:22:29.767Z,98796.56
2022-11-05T18:24:56.346Z,98795.31
2022-11-05T18:27:27.781Z,98804.94
2022-11-05T18:29:54.950Z,98795.53
2022-11-05T18:32:21.622Z,98808.66
2022-11-05T18:34:48.311Z,98799.16
2022-11-05T18:37:15.576Z,98805.28
2022-11-05T18:39:42.359Z,98798.56
2022-11-05T18:42:09.283Z,98793.47
2022-11-05T18:44:39.186Z,98796.50
2022-11-05T18:47:07.009Z,98791.53
2022-11-05T18:49:33.956Z,98790.97
2022-11-05T18:52:00.730Z,98786.91
2022-11-05T18:54:27.450Z,98798.09
2022-11-05T18:56:54.140Z,98797.66
2022-11-05T18:59:39.090Z,98798.03
2022-11-05T19:02:07.465Z,98790.59
2022-11-05T19:04:36.250Z,98789.19
2022-11-05T19:07:05.512Z,98785.69
2022-11-05T19:09:34.427Z,98775.41
2022-11-05T19:12:01.923Z,98780.56
2022-11-05T19:14:30.188Z,98789.44
2022-11-05T19:16:58.189Z,98790.06
2022-11-05T19:19:25.396Z,98786.44
2022-11-05T19:21:52.149Z,98788.84
2022-11-05T19:24:18.729Z,98785.53
2022-11-05T19:26:46.835Z,98788.59
2022-11-05T19:29:13.465Z,98794.16
2022-11-05T19:31:40.072Z,98785.44
2022-11-05T19:34:06.636Z,98783.59
2022-11-05T19:36:34.243Z,98782.88
2022-11-05T19:39:04.142Z,98782.28
2022-11-05T19:41:31.128Z,98778.91
2022-11-05T19:44:01.985Z,98784.50
2022-11-05T19:46:29.874Z,98790.47
2022-11-05T19:48:56.884Z,98785.84
2022-11-05T19:51:25.609Z,98788.81
2022-11-05T19:53:53.887Z,98790.06
2022-11-05T19:56:22.953Z,98773.09
2022-11-05T19:58:50.487Z,98780.88
2022-11-05T20:01:18.344Z,98789.28
2022-11-05T20:03:46.103Z,98788.94
2022-11-05T20:06:16.933Z,98781.56
2022-11-05T20:09:14.821Z,98774.56
2022-11-05T20:11:31.994Z,98787.53
2022-11-05T20:13:58.614Z,98794.13
2022-11-05T20:16:28.624Z,98801.50
2022-11-05T20:18:55.830Z,98802.16
2022-11-05T20:21:22.384Z,98798.97
2022-11-05T20:23:49.406Z,98810.22
2022-11-05T20:26:16.090Z,98817.56
2022-11-05T20:28:43.910Z,98822.34
2022-11-05T20:31:15.495Z,98818.22
2022-11-05T20:33:43.181Z,98813.06
2022-11-05T20:36:14.017Z,98817.03
2022-11-05T20:38:40.775Z,98815.41
2022-11-05T20:41:09.776Z,98815.00
2022-11-05T20:43:37.479Z,98820.44
2022-11-05T20:46:04.912Z,98820.19
2022-11-05T20:48:32.756Z,98822.28
2022-11-05T20:51:00.078Z,98819.34
2022-11-05T20:53:26.665Z,98815.38
2022-11-05T20:55:53.279Z,98815.53
2022-11-05T20:58:19.818Z,98815.50
2022-11-05T21:01:05.508Z,98818.06
2022-11-05T21:03:32.251Z,98818.59
2022-11-05T21:06:00.131Z,98820.69
2022-11-05T21:08:28.076Z,98822.03
2022-11-05T21:10:55.870Z,98828.28
2022-11-05T21:13:23.155Z,98820.56
2022-11-05T21:15:55.541Z,98818.72
2022-11-05T21:18:24.133Z,98810.97
2022-11-05T21:20:51.462Z,98808.72
2022-11-05T21:23:18.613Z,98811.69
2022-11-05T21:25:45.373Z,98812.66
2022-11-05T21:28:13.803Z,98809.66
2022-11-05T21:30:45.093Z,98809.59
2022-11-05T21:33:13.555Z,98808.41
2022-11-05T21:35:44.558Z,98811.31
2022-11-05T21:38:13.817Z,98811.06
2022-11-05T21:40:41.126Z,98806.00
2022-11-05T21:43:08.244Z,98808.94
2022-11-05T21:45:35.061Z,98805.50
2022-11-05T21:48:01.745Z,98809.72
2022-11-05T21:50:47.046Z,98805.34
2022-11-05T21:53:33.920Z,98806.22
2022-11-05T21:56:19.739Z,98802.97
2022-11-05T21:59:04.753Z,98806.09
2022-11-05T22:01:31.971Z,98807.38
2022-11-05T22:04:02.878Z,98810.38
2022-11-05T22:06:32.915Z,98804.75
2022-11-05T22:08:59.857Z,98801.69
2022-11-05T22:11:26.624Z,98803.75
2022-11-05T22:13:53.866Z,98802.31
2022-11-05T22:16:20.570Z,98797.78
2022-11-05T22:18:47.119Z,98802.97
2022-11-05T22:21:19.376Z,98798.34
2022-11-05T22:23:45.981Z,98800.38
2022-11-05T22:26:13.011Z,98806.56
2022-11-05T22:28:39.605Z,98804.47
2022-11-05T22:31:13.359Z,98796.09
2022-11-05T22:33:40.005Z,98803.09
2022-11-05T22:36:07.072Z,98810.66
2022-11-05T22:38:34.066Z,98807.16
2022-11-05T22:41:06.188Z,98791.44
2022-11-05T22:43:32.918Z,98800.41
2022-11-05T22:46:06.854Z,98802.91
2022-11-05T22:48:35.775Z,98794.97
2022-11-05T22:51:07.763Z,98786.75
2022-11-05T22:53:35.853Z,98787.56
2022-11-05T22:56:07.725Z,98788.25
2022-11-05T22:58:34.791Z,98784.09
2022-11-05T23:01:02.282Z,98793.50
2022-11-05T23:03:30.511Z,98781.25
2022-11-05T23:06:03.543Z,98780.75
2022-11-05T23:08:49.404Z,98781.16
2022-11-05T23:11:38.187Z,98784.13
2022-11-05T23:14:07.143Z,98781.88
2022-11-05T23:16:52.702Z,98781.09
2022-11-05T23:19:38.598Z,98774.75
2022-11-05T23:22:29.169Z,98770.16
2022-11-05T23:24:55.751Z,98776.25
2022-11-05T23:27:22.512Z,98768.19
2022-11-05T23:29:49.071Z,98770.78
2022-11-05T23:32:24.533Z,98776.06
2022-11-05T23:34:52.160Z,98769.94
2022-11-05T23:40:14.016Z,98775.28
2022-11-05T23:43:00.482Z,98770.88
2022-11-05T23:45:45.712Z,98761.19
2022-11-05T23:48:23.641Z,98762.59
2022-11-05T23:50:55.958Z,98756.81
2022-11-05T23:53:22.689Z,98752.47
2022-11-05T23:55:50.112Z,98742.16
2022-11-05T23:58:17.012Z,98751.31
